PWSweather.com
Personal Weather Stations
Station Observations
KPASPRIN10
East Vincent, East Vincent, PA 19475

East VincentEast Vincent, PA 19475

Lat: 40.170948, Lon: -75.629681

Elevation: 404

Station Type: Davis VP2

http://www.evweather.com

High Low Average
Temperature 41.7°F5.4°C 26.3°F-3.2°C 33.8°F1.0°C
Dew Point 32.5°F0.3°C 20.9°F-6.2°C 26.9°F-2.8°C
Winds 9.2 mph 14.8 kmh Calm Calm 4.0 mph E6.4 kmh E
Wind Gusts 15.0 mph24.1 kmh -- 5.0 mph8.0 kmh
Humidity 96% 58% 76%
Pressure 30.07 in1018.3 mb 29.73 in1006.8 mb -
Precipitation 0.01 in0.3 mm - -
Hour Temp Dew Point Humidity Winds Wind Gusts Pressure Precip Precip Rate Daily Precip Total
12:00 AM 31.7°F-0.2°C 22.4°F-5.3°C 68% 1.2 mph NE1.9 kmh NE 2.3 mph3.7 kmh 30.08 in1018.6 mb - 0.00 in0.0 mm 0.00 in0.0 mm
12:10 AM 31.4°F-0.3°C 22.7°F-5.2°C 70% 1.2 mph NE1.9 kmh NE 1.2 mph1.9 kmh 30.08 in1018.6 mb - 0.00 in0.0 mm 0.00 in0.0 mm
12:20 AM 30.8°F-0.7°C 22.2°F-5.4°C 70% 2.3 mph N3.7 kmh N 2.3 mph3.7 kmh 30.08 in1018.6 mb - 0.00 in0.0 mm 0.00 in0.0 mm
12:30 AM 30.5°F-0.8°C 22.2°F-5.4°C 71% 2.3 mph NNE3.7 kmh NNE 3.5 mph5.6 kmh 30.08 in1018.6 mb - 0.00 in0.0 mm 0.00 in0.0 mm
12:40 AM 30.8°F-0.7°C 22.5°F-5.3°C 71% 2.3 mph NNE3.7 kmh NNE 3.5 mph5.6 kmh 30.08 in1018.6 mb - 0.00 in0.0 mm 0.00 in0.0 mm
12:50 AM 31.5°F-0.3°C 22.5°F-5.3°C 69% 3.5 mph NNE5.6 kmh NNE 4.6 mph7.4 kmh 30.08 in1018.6 mb - 0.00 in0.0 mm 0.00 in0.0 mm
01:00 AM 32.0°F0.0°C 22.2°F-5.4°C 67% 3.5 mph NNE5.6 kmh NNE 4.6 mph7.4 kmh 30.07 in1018.3 mb - 0.00 in0.0 mm 0.00 in0.0 mm
01:10 AM 32.2°F0.1°C 22.5°F-5.3°C 67% 3.5 mph NNE5.6 kmh NNE 4.6 mph7.4 kmh 30.07 in1018.3 mb - 0.00 in0.0 mm 0.00 in0.0 mm
01:20 AM 32.1°F0.1°C 22.0°F-5.6°C 66% 3.5 mph N5.6 kmh N 3.5 mph5.6 kmh 30.07 in1018.3 mb - 0.00 in0.0 mm 0.00 in0.0 mm
01:30 AM 31.9°F-0.1°C 22.5°F-5.3°C 68% 2.3 mph N3.7 kmh N 4.6 mph7.4 kmh 30.07 in1018.3 mb - 0.00 in0.0 mm 0.00 in0.0 mm
01:40 AM 31.6°F-0.2°C 21.9°F-5.6°C 67% 3.5 mph N5.6 kmh N 3.5 mph5.6 kmh 30.07 in1018.3 mb - 0.00 in0.0 mm 0.00 in0.0 mm
01:50 AM 31.4°F-0.3°C 22.1°F-5.5°C 68% 3.5 mph NNE5.6 kmh NNE 5.8 mph9.3 kmh 30.06 in1017.9 mb - 0.00 in0.0 mm 0.00 in0.0 mm
02:00 AM 31.4°F-0.3°C 22.0°F-5.6°C 68% 3.5 mph NNE5.6 kmh NNE 3.5 mph5.6 kmh 30.06 in1017.9 mb - 0.00 in0.0 mm 0.00 in0.0 mm
02:10 AM 31.0°F-0.6°C 21.7°F-5.7°C 68% 3.5 mph NE5.6 kmh NE 3.5 mph5.6 kmh 30.05 in1017.6 mb - 0.00 in0.0 mm 0.00 in0.0 mm
02:20 AM 30.7°F-0.7°C 21.7°F-5.7°C 69% 4.6 mph NE7.4 kmh NE 4.6 mph7.4 kmh 30.05 in1017.6 mb - 0.00 in0.0 mm 0.00 in0.0 mm
02:30 AM 30.3°F-0.9°C 21.7°F-5.7°C 70% 4.6 mph NE7.4 kmh NE 5.8 mph9.3 kmh 30.05 in1017.6 mb - 0.00 in0.0 mm 0.00 in0.0 mm
02:40 AM 30.0°F-1.1°C 21.7°F-5.7°C 71% 3.5 mph NE5.6 kmh NE 3.5 mph5.6 kmh 30.05 in1017.6 mb - 0.00 in0.0 mm 0.00 in0.0 mm
02:50 AM 29.7°F-1.3°C 21.4°F-5.9°C 71% 2.3 mph NE3.7 kmh NE 3.5 mph5.6 kmh 30.04 in1017.3 mb - 0.00 in0.0 mm 0.00 in0.0 mm
03:00 AM 29.5°F-1.4°C 21.6°F-5.8°C 72% 1.2 mph NE1.9 kmh NE 2.3 mph3.7 kmh 30.04 in1017.3 mb - 0.00 in0.0 mm 0.00 in0.0 mm
03:10 AM 29.3°F-1.5°C 21.4°F-5.9°C 72% 1.2 mph NE1.9 kmh NE 1.2 mph1.9 kmh 30.03 in1016.9 mb - 0.00 in0.0 mm 0.00 in0.0 mm
03:20 AM 28.9°F-1.7°C 21.3°F-5.9°C 73% 1.2 mph N1.9 kmh N 3.5 mph5.6 kmh 30.03 in1016.9 mb - 0.00 in0.0 mm 0.00 in0.0 mm
03:30 AM 28.7°F-1.8°C 21.5°F-5.8°C 74% 2.3 mph NE3.7 kmh NE 3.5 mph5.6 kmh 30.02 in1016.6 mb - 0.00 in0.0 mm 0.00 in0.0 mm
03:40 AM 28.8°F-1.8°C 21.6°F-5.8°C 74% 1.2 mph NE1.9 kmh NE 3.5 mph5.6 kmh 30.02 in1016.6 mb - 0.00 in0.0 mm 0.00 in0.0 mm
03:50 AM 28.7°F-1.8°C 21.5°F-5.8°C 74% 4.6 mph NE7.4 kmh NE 4.6 mph7.4 kmh 30.01 in1016.3 mb - 0.00 in0.0 mm 0.00 in0.0 mm
04:00 AM 29.1°F-1.6°C 21.5°F-5.8°C 73% 3.5 mph NE5.6 kmh NE 3.5 mph5.6 kmh 30.01 in1016.3 mb - 0.00 in0.0 mm 0.00 in0.0 mm
04:10 AM 29.1°F-1.6°C 21.5°F-5.8°C 73% 2.3 mph NE3.7 kmh NE 3.5 mph5.6 kmh 30.01 in1016.3 mb - 0.00 in0.0 mm 0.00 in0.0 mm
04:20 AM 28.8°F-1.8°C 21.6°F-5.8°C 74% 3.5 mph NE5.6 kmh NE 3.5 mph5.6 kmh 30.00 in1015.9 mb - 0.00 in0.0 mm 0.00 in0.0 mm
04:30 AM 28.5°F-1.9°C 21.3°F-5.9°C 74% 3.5 mph NE5.6 kmh NE 4.6 mph7.4 kmh 30.00 in1015.9 mb - 0.00 in0.0 mm 0.00 in0.0 mm
04:40 AM 28.5°F-1.9°C 21.3°F-5.9°C 74% 3.5 mph NE5.6 kmh NE 4.6 mph7.4 kmh 30.00 in1015.9 mb - 0.00 in0.0 mm 0.00 in0.0 mm
04:50 AM 28.5°F-1.9°C 21.6°F-5.8°C 75% 3.5 mph NE5.6 kmh NE 3.5 mph5.6 kmh 30.00 in1015.9 mb - 0.00 in0.0 mm 0.00 in0.0 mm
05:00 AM 28.4°F-2.0°C 21.2°F-6.0°C 74% 3.5 mph NNE5.6 kmh NNE 3.5 mph5.6 kmh 30.00 in1015.9 mb - 0.00 in0.0 mm 0.00 in0.0 mm
05:10 AM 28.1°F-2.2°C 21.2°F-6.0°C 75% 2.3 mph NNE3.7 kmh NNE 3.5 mph5.6 kmh 30.01 in1016.3 mb - 0.00 in0.0 mm 0.00 in0.0 mm
05:20 AM 28.2°F-2.1°C 21.3°F-5.9°C 75% 3.5 mph NE5.6 kmh NE 4.6 mph7.4 kmh 30.00 in1015.9 mb - 0.00 in0.0 mm 0.00 in0.0 mm
05:30 AM 28.2°F-2.1°C 21.3°F-5.9°C 75% 3.5 mph NNE5.6 kmh NNE 4.6 mph7.4 kmh 30.00 in1015.9 mb - 0.00 in0.0 mm 0.00 in0.0 mm
05:40 AM 28.1°F-2.2°C 21.5°F-5.8°C 76% 4.6 mph N7.4 kmh N 5.8 mph9.3 kmh 30.00 in1015.9 mb - 0.00 in0.0 mm 0.00 in0.0 mm
05:50 AM 28.2°F-2.1°C 21.6°F-5.8°C 76% 4.6 mph NE7.4 kmh NE 4.6 mph7.4 kmh 30.00 in1015.9 mb - 0.00 in0.0 mm 0.00 in0.0 mm
06:00 AM 28.0°F-2.2°C 21.5°F-5.8°C 76% 3.5 mph N5.6 kmh N 4.6 mph7.4 kmh 30.00 in1015.9 mb - 0.00 in0.0 mm 0.00 in0.0 mm
06:10 AM 27.9°F-2.3°C 21.3°F-5.9°C 76% 2.3 mph N3.7 kmh N 3.5 mph5.6 kmh 30.00 in1015.9 mb - 0.00 in0.0 mm 0.00 in0.0 mm
06:20 AM 27.8°F-2.3°C 21.2°F-6.0°C 76% 1.2 mph N1.9 kmh N 2.3 mph3.7 kmh 30.00 in1015.9 mb - 0.00 in0.0 mm 0.00 in0.0 mm
06:30 AM 27.5°F-2.5°C 20.9°F-6.2°C 76% 2.3 mph NNE3.7 kmh NNE 3.5 mph5.6 kmh 30.00 in1015.9 mb - 0.00 in0.0 mm 0.00 in0.0 mm
06:40 AM 27.1°F-2.7°C 21.2°F-6.0°C 78% 2.3 mph NE3.7 kmh NE 3.5 mph5.6 kmh 30.00 in1015.9 mb - 0.00 in0.0 mm 0.00 in0.0 mm
06:50 AM 26.8°F-2.9°C 20.9°F-6.2°C 78% 2.3 mph N3.7 kmh N 3.5 mph5.6 kmh 29.99 in1015.6 mb - 0.00 in0.0 mm 0.00 in0.0 mm
07:00 AM 26.4°F-3.1°C 21.1°F-6.1°C 80% 2.3 mph NNE3.7 kmh NNE 3.5 mph5.6 kmh 29.99 in1015.6 mb - 0.00 in0.0 mm 0.00 in0.0 mm
07:10 AM 26.3°F-3.2°C 21.0°F-6.1°C 80% 2.3 mph NE3.7 kmh NE 3.5 mph5.6 kmh 29.99 in1015.6 mb - 0.00 in0.0 mm 0.00 in0.0 mm
07:20 AM 26.4°F-3.1°C 21.1°F-6.1°C 80% 1.2 mph N1.9 kmh N 2.3 mph3.7 kmh 29.99 in1015.6 mb - 0.00 in0.0 mm 0.00 in0.0 mm
07:30 AM 26.4°F-3.1°C 21.1°F-6.1°C 80% Calm Calm -- 30.00 in1015.9 mb - 0.00 in0.0 mm 0.00 in0.0 mm
07:40 AM 26.5°F-3.1°C 21.2°F-6.0°C 80% 1.2 mph N1.9 kmh N 1.2 mph1.9 kmh 30.00 in1015.9 mb - 0.00 in0.0 mm 0.00 in0.0 mm
07:50 AM 26.6°F-3.0°C 21.5°F-5.8°C 81% 2.3 mph N3.7 kmh N 3.5 mph5.6 kmh 29.99 in1015.6 mb - 0.00 in0.0 mm 0.00 in0.0 mm
08:00 AM 26.9°F-2.8°C 21.9°F-5.6°C 81% 1.2 mph N1.9 kmh N 2.3 mph3.7 kmh 29.99 in1015.6 mb - 0.00 in0.0 mm 0.00 in0.0 mm
08:10 AM 27.6°F-2.4°C 22.2°F-5.4°C 80% Calm Calm 2.3 mph3.7 kmh 29.99 in1015.6 mb - 0.00 in0.0 mm 0.00 in0.0 mm
08:20 AM 28.7°F-1.8°C 22.7°F-5.2°C 78% 3.5 mph NE5.6 kmh NE 4.6 mph7.4 kmh 29.99 in1015.6 mb - 0.00 in0.0 mm 0.00 in0.0 mm
08:30 AM 29.4°F-1.4°C 23.1°F-4.9°C 77% 2.3 mph N3.7 kmh N 3.5 mph5.6 kmh 29.98 in1015.2 mb - 0.00 in0.0 mm 0.00 in0.0 mm
08:40 AM 29.6°F-1.3°C 23.3°F-4.8°C 77% 3.5 mph NE5.6 kmh NE 4.6 mph7.4 kmh 29.98 in1015.2 mb - 0.00 in0.0 mm 0.00 in0.0 mm
08:50 AM 29.7°F-1.3°C 23.1°F-4.9°C 76% 2.3 mph NE3.7 kmh NE 4.6 mph7.4 kmh 29.98 in1015.2 mb - 0.00 in0.0 mm 0.00 in0.0 mm
09:00 AM 29.8°F-1.2°C 23.2°F-4.9°C 76% 4.6 mph NNE7.4 kmh NNE 4.6 mph7.4 kmh 29.98 in1015.2 mb - 0.00 in0.0 mm 0.00 in0.0 mm
09:10 AM 30.0°F-1.1°C 23.7°F-4.6°C 77% 4.6 mph NE7.4 kmh NE 4.6 mph7.4 kmh 29.97 in1014.9 mb - 0.00 in0.0 mm 0.00 in0.0 mm
09:20 AM 30.2°F-1.0°C 23.9°F-4.5°C 77% 2.3 mph ENE3.7 kmh ENE 3.5 mph5.6 kmh 29.97 in1014.9 mb - 0.00 in0.0 mm 0.00 in0.0 mm
09:30 AM 30.5°F-0.8°C 23.8°F-4.6°C 76% 3.5 mph NE5.6 kmh NE 4.6 mph7.4 kmh 29.96 in1014.6 mb - 0.00 in0.0 mm 0.00 in0.0 mm
09:40 AM 30.8°F-0.7°C 24.1°F-4.4°C 76% 4.6 mph NE7.4 kmh NE 5.8 mph9.3 kmh 29.97 in1014.9 mb - 0.00 in0.0 mm 0.00 in0.0 mm
09:50 AM 31.1°F-0.5°C 24.1°F-4.4°C 75% 2.3 mph NE3.7 kmh NE 3.5 mph5.6 kmh 29.97 in1014.9 mb - 0.00 in0.0 mm 0.00 in0.0 mm
10:00 AM 31.6°F-0.2°C 24.6°F-4.1°C 75% 3.5 mph NE5.6 kmh NE 4.6 mph7.4 kmh 29.97 in1014.9 mb - 0.00 in0.0 mm 0.00 in0.0 mm
10:10 AM 32.3°F0.2°C 25.0°F-3.9°C 74% 4.6 mph E7.4 kmh E 3.5 mph5.6 kmh 29.97 in1014.9 mb - 0.00 in0.0 mm 0.00 in0.0 mm
10:20 AM 33.2°F0.7°C 25.5°F-3.6°C 73% 2.3 mph NNE3.7 kmh NNE 3.5 mph5.6 kmh 29.97 in1014.9 mb - 0.00 in0.0 mm 0.00 in0.0 mm
10:30 AM 33.7°F0.9°C 25.6°F-3.6°C 72% 2.3 mph ENE3.7 kmh ENE 3.5 mph5.6 kmh 29.96 in1014.6 mb - 0.00 in0.0 mm 0.00 in0.0 mm
10:40 AM 34.3°F1.3°C 26.2°F-3.2°C 72% 3.5 mph NE5.6 kmh NE 6.9 mph11.1 kmh 29.96 in1014.6 mb - 0.00 in0.0 mm 0.00 in0.0 mm
10:50 AM 34.9°F1.6°C 26.4°F-3.1°C 71% 3.5 mph NNE5.6 kmh NNE 5.8 mph9.3 kmh 29.95 in1014.2 mb - 0.00 in0.0 mm 0.00 in0.0 mm
11:00 AM 35.4°F1.9°C 26.6°F-3.0°C 70% 4.6 mph NE7.4 kmh NE 8.1 mph13.0 kmh 29.95 in1014.2 mb - 0.00 in0.0 mm 0.00 in0.0 mm
11:10 AM 36.1°F2.3°C 26.2°F-3.2°C 67% 5.8 mph NE9.3 kmh NE 9.2 mph14.8 kmh 29.95 in1014.2 mb - 0.00 in0.0 mm 0.00 in0.0 mm
11:20 AM 36.2°F2.3°C 27.0°F-2.8°C 69% 5.8 mph E9.3 kmh E 8.1 mph13.0 kmh 29.95 in1014.2 mb - 0.00 in0.0 mm 0.00 in0.0 mm
11:30 AM 36.5°F2.5°C 26.9°F-2.8°C 68% 3.5 mph NE5.6 kmh NE 4.6 mph7.4 kmh 29.95 in1014.2 mb - 0.00 in0.0 mm 0.00 in0.0 mm
11:40 AM 36.9°F2.7°C 27.3°F-2.6°C 68% 4.6 mph ENE7.4 kmh ENE 4.6 mph7.4 kmh 29.94 in1013.9 mb - 0.00 in0.0 mm 0.00 in0.0 mm
11:50 AM 37.1°F2.8°C 27.2°F-2.7°C 67% 5.8 mph NE9.3 kmh NE 5.8 mph9.3 kmh 29.94 in1013.9 mb - 0.00 in0.0 mm 0.00 in0.0 mm
12:00 PM 37.3°F2.9°C 27.3°F-2.6°C 67% 5.8 mph NE9.3 kmh NE 9.2 mph14.8 kmh 29.93 in1013.5 mb - 0.00 in0.0 mm 0.00 in0.0 mm
12:10 PM 37.7°F3.2°C 27.3°F-2.6°C 66% 4.6 mph ENE7.4 kmh ENE 9.2 mph14.8 kmh 29.93 in1013.5 mb - 0.00 in0.0 mm 0.00 in0.0 mm
12:20 PM 38.4°F3.6°C 28.7°F-1.8°C 68% 8.1 mph E13.0 kmh E 9.2 mph14.8 kmh 29.92 in1013.2 mb - 0.00 in0.0 mm 0.00 in0.0 mm
12:30 PM 38.9°F3.8°C 28.1°F-2.2°C 65% 8.1 mph ENE13.0 kmh ENE 10.4 mph16.7 kmh 29.91 in1012.9 mb - 0.00 in0.0 mm 0.00 in0.0 mm
12:40 PM 39.1°F3.9°C 28.3°F-2.1°C 65% 5.8 mph ENE9.3 kmh ENE 12.7 mph20.4 kmh 29.91 in1012.9 mb - 0.00 in0.0 mm 0.00 in0.0 mm
12:50 PM 39.2°F4.0°C 28.4°F-2.0°C 65% 4.6 mph NE7.4 kmh NE 5.8 mph9.3 kmh 29.90 in1012.5 mb - 0.00 in0.0 mm 0.00 in0.0 mm
01:00 PM 39.9°F4.4°C 28.3°F-2.1°C 63% 5.8 mph ENE9.3 kmh ENE 11.5 mph18.5 kmh 29.90 in1012.5 mb - 0.00 in0.0 mm 0.00 in0.0 mm
01:10 PM 40.3°F4.6°C 27.9°F-2.3°C 61% 9.2 mph E14.8 kmh E 13.8 mph22.2 kmh 29.89 in1012.2 mb - 0.00 in0.0 mm 0.00 in0.0 mm
01:20 PM 40.9°F4.9°C 29.3°F-1.5°C 63% 6.9 mph NE11.1 kmh NE 10.4 mph16.7 kmh 29.89 in1012.2 mb - 0.00 in0.0 mm 0.00 in0.0 mm
01:30 PM 41.3°F5.2°C 28.4°F-2.0°C 60% 4.6 mph E7.4 kmh E 9.2 mph14.8 kmh 29.89 in1012.2 mb - 0.00 in0.0 mm 0.00 in0.0 mm
01:40 PM 41.1°F5.1°C 28.3°F-2.1°C 60% 5.8 mph E9.3 kmh E 9.2 mph14.8 kmh 29.89 in1012.2 mb - 0.00 in0.0 mm 0.00 in0.0 mm
01:50 PM 41.7°F5.4°C 28.8°F-1.8°C 60% 8.1 mph E13.0 kmh E 12.7 mph20.4 kmh 29.88 in1011.9 mb - 0.00 in0.0 mm 0.00 in0.0 mm
02:00 PM 41.7°F5.4°C 28.4°F-2.0°C 59% 5.8 mph ESE9.3 kmh ESE 10.4 mph16.7 kmh 29.88 in1011.9 mb - 0.00 in0.0 mm 0.00 in0.0 mm
02:10 PM 41.4°F5.2°C 27.7°F-2.4°C 58% 4.6 mph E7.4 kmh E 9.2 mph14.8 kmh 29.87 in1011.5 mb - 0.00 in0.0 mm 0.00 in0.0 mm
02:20 PM 41.5°F5.3°C 28.2°F-2.1°C 59% 5.8 mph E9.3 kmh E 11.5 mph18.5 kmh 29.87 in1011.5 mb - 0.00 in0.0 mm 0.00 in0.0 mm
02:30 PM 41.3°F5.2°C 27.6°F-2.4°C 58% 4.6 mph E7.4 kmh E 8.1 mph13.0 kmh 29.86 in1011.2 mb - 0.00 in0.0 mm 0.00 in0.0 mm
02:40 PM 41.0°F5.0°C 27.3°F-2.6°C 58% 6.9 mph NE11.1 kmh NE 8.1 mph13.0 kmh 29.86 in1011.2 mb - 0.00 in0.0 mm 0.00 in0.0 mm
02:50 PM 40.8°F4.9°C 28.8°F-1.8°C 62% 4.6 mph ENE7.4 kmh ENE 8.1 mph13.0 kmh 29.85 in1010.8 mb - 0.00 in0.0 mm 0.00 in0.0 mm
03:00 PM 41.3°F5.2°C 29.6°F-1.3°C 63% 5.8 mph NE9.3 kmh NE 9.2 mph14.8 kmh 29.85 in1010.8 mb - 0.00 in0.0 mm 0.00 in0.0 mm
03:10 PM 41.3°F5.2°C 29.3°F-1.5°C 62% 3.5 mph E5.6 kmh E 9.2 mph14.8 kmh 29.85 in1010.8 mb - 0.00 in0.0 mm 0.00 in0.0 mm
03:20 PM 41.6°F5.3°C 29.9°F-1.2°C 63% 4.6 mph E7.4 kmh E 11.5 mph18.5 kmh 29.85 in1010.8 mb - 0.00 in0.0 mm 0.00 in0.0 mm
03:30 PM 41.4°F5.2°C 29.3°F-1.5°C 62% 6.9 mph E11.1 kmh E 10.4 mph16.7 kmh 29.84 in1010.5 mb - 0.00 in0.0 mm 0.00 in0.0 mm
03:40 PM 40.9°F4.9°C 29.3°F-1.5°C 63% 5.8 mph E9.3 kmh E 11.5 mph18.5 kmh 29.84 in1010.5 mb - 0.00 in0.0 mm 0.00 in0.0 mm
03:50 PM 40.7°F4.8°C 29.5°F-1.4°C 64% 8.1 mph ENE13.0 kmh ENE 11.5 mph18.5 kmh 29.83 in1010.2 mb - 0.00 in0.0 mm 0.00 in0.0 mm
04:00 PM 40.6°F4.8°C 29.4°F-1.4°C 64% 8.1 mph E13.0 kmh E 9.2 mph14.8 kmh 29.83 in1010.2 mb - 0.00 in0.0 mm 0.00 in0.0 mm
04:10 PM 40.5°F4.7°C 29.3°F-1.5°C 64% 5.8 mph ESE9.3 kmh ESE 12.7 mph20.4 kmh 29.83 in1010.2 mb - 0.00 in0.0 mm 0.00 in0.0 mm
04:20 PM 40.5°F4.7°C 29.7°F-1.3°C 65% 4.6 mph ENE7.4 kmh ENE 4.6 mph7.4 kmh 29.83 in1010.2 mb - 0.00 in0.0 mm 0.00 in0.0 mm
04:30 PM 40.6°F4.8°C 29.4°F-1.4°C 64% 8.1 mph NE13.0 kmh NE 10.4 mph16.7 kmh 29.83 in1010.2 mb - 0.00 in0.0 mm 0.00 in0.0 mm
04:40 PM 40.5°F4.7°C 29.7°F-1.3°C 65% 5.8 mph NE9.3 kmh NE 8.1 mph13.0 kmh 29.82 in1009.8 mb - 0.00 in0.0 mm 0.00 in0.0 mm
04:50 PM 40.4°F4.7°C 30.0°F-1.1°C 66% 8.1 mph NE13.0 kmh NE 10.4 mph16.7 kmh 29.82 in1009.8 mb - 0.00 in0.0 mm 0.00 in0.0 mm
05:00 PM 40.2°F4.6°C 29.8°F-1.2°C 66% 5.8 mph NE9.3 kmh NE 9.2 mph14.8 kmh 29.82 in1009.8 mb - 0.00 in0.0 mm 0.00 in0.0 mm
05:10 PM 39.9°F4.4°C 29.9°F-1.2°C 67% 8.1 mph ENE13.0 kmh ENE 11.5 mph18.5 kmh 29.82 in1009.8 mb - 0.00 in0.0 mm 0.00 in0.0 mm
05:20 PM 39.7°F4.3°C 30.0°F-1.1°C 68% 6.9 mph NE11.1 kmh NE 6.9 mph11.1 kmh 29.82 in1009.8 mb - 0.00 in0.0 mm 0.00 in0.0 mm
05:30 PM 39.5°F4.2°C 30.2°F-1.0°C 69% 6.9 mph ENE11.1 kmh ENE 15.0 mph24.1 kmh 29.81 in1009.5 mb - 0.00 in0.0 mm 0.00 in0.0 mm
05:40 PM 39.3°F4.1°C 30.0°F-1.1°C 69% 6.9 mph NE11.1 kmh NE 9.2 mph14.8 kmh 29.81 in1009.5 mb - 0.00 in0.0 mm 0.00 in0.0 mm
05:50 PM 39.1°F3.9°C 29.8°F-1.2°C 69% 4.6 mph ENE7.4 kmh ENE 4.6 mph7.4 kmh 29.81 in1009.5 mb - 0.00 in0.0 mm 0.00 in0.0 mm
06:00 PM 38.9°F3.8°C 30.6°F-0.8°C 72% 8.1 mph E13.0 kmh E 9.2 mph14.8 kmh 29.81 in1009.5 mb - 0.00 in0.0 mm 0.00 in0.0 mm
06:10 PM 38.4°F3.6°C 31.2°F-0.4°C 75% 6.9 mph E11.1 kmh E 9.2 mph14.8 kmh 29.82 in1009.8 mb - 0.00 in0.0 mm 0.00 in0.0 mm
06:20 PM 37.9°F3.3°C 32.0°F0.0°C 79% 2.3 mph E3.7 kmh E 5.8 mph9.3 kmh 29.82 in1009.8 mb - 0.00 in0.0 mm 0.00 in0.0 mm
06:30 PM 37.4°F3.0°C 32.1°F0.1°C 81% 4.6 mph E7.4 kmh E 5.8 mph9.3 kmh 29.82 in1009.8 mb - 0.00 in0.0 mm 0.00 in0.0 mm
06:40 PM 36.8°F2.7°C 32.4°F0.2°C 84% 3.5 mph E5.6 kmh E 4.6 mph7.4 kmh 29.82 in1009.8 mb - 0.00 in0.0 mm 0.00 in0.0 mm
06:50 PM 36.1°F2.3°C 32.3°F0.2°C 86% 2.3 mph E3.7 kmh E 3.5 mph5.6 kmh 29.82 in1009.8 mb - 0.00 in0.0 mm 0.00 in0.0 mm
07:00 PM 35.6°F2.0°C 32.4°F0.2°C 88% 2.3 mph NE3.7 kmh NE 3.5 mph5.6 kmh 29.82 in1009.8 mb - 0.00 in0.0 mm 0.00 in0.0 mm
07:10 PM 35.3°F1.8°C 32.4°F0.2°C 89% 3.5 mph ENE5.6 kmh ENE 4.6 mph7.4 kmh 29.82 in1009.8 mb - 0.00 in0.0 mm 0.00 in0.0 mm
07:20 PM 35.0°F1.7°C 32.4°F0.2°C 90% 2.3 mph NE3.7 kmh NE 4.6 mph7.4 kmh 29.82 in1009.8 mb - 0.00 in0.0 mm 0.00 in0.0 mm
07:30 PM 34.8°F1.6°C 32.4°F0.2°C 91% 2.3 mph NE3.7 kmh NE 3.5 mph5.6 kmh 29.82 in1009.8 mb - 0.00 in0.0 mm 0.00 in0.0 mm
07:40 PM 34.6°F1.4°C 32.2°F0.1°C 91% 2.3 mph NE3.7 kmh NE 3.5 mph5.6 kmh 29.82 in1009.8 mb - 0.00 in0.0 mm 0.00 in0.0 mm
07:50 PM 34.6°F1.4°C 32.5°F0.3°C 92% 2.3 mph NE3.7 kmh NE 3.5 mph5.6 kmh 29.82 in1009.8 mb - 0.00 in0.0 mm 0.00 in0.0 mm
08:00 PM 34.6°F1.4°C 32.5°F0.3°C 92% 2.3 mph NNE3.7 kmh NNE 3.5 mph5.6 kmh 29.82 in1009.8 mb - 0.00 in0.0 mm 0.00 in0.0 mm
08:10 PM 34.4°F1.3°C 32.3°F0.2°C 92% 2.3 mph N3.7 kmh N 3.5 mph5.6 kmh 29.82 in1009.8 mb - 0.00 in0.0 mm 0.00 in0.0 mm
08:20 PM 34.3°F1.3°C 32.2°F0.1°C 92% 1.2 mph N1.9 kmh N 3.5 mph5.6 kmh 29.81 in1009.5 mb - 0.00 in0.0 mm 0.00 in0.0 mm
08:30 PM 34.1°F1.2°C 32.0°F0.0°C 92% 2.3 mph NW3.7 kmh NW 2.3 mph3.7 kmh 29.81 in1009.5 mb - 0.00 in0.0 mm 0.00 in0.0 mm
08:40 PM 33.9°F1.1°C 32.1°F0.1°C 93% 4.6 mph N7.4 kmh N 5.8 mph9.3 kmh 29.81 in1009.5 mb - 0.00 in0.0 mm 0.00 in0.0 mm
08:50 PM 33.9°F1.1°C 32.1°F0.1°C 93% 1.2 mph WNW1.9 kmh WNW 1.2 mph1.9 kmh 29.82 in1009.8 mb - 0.00 in0.0 mm 0.00 in0.0 mm
09:00 PM 33.9°F1.1°C 32.1°F0.1°C 93% 2.3 mph N3.7 kmh N 2.3 mph3.7 kmh 29.81 in1009.5 mb - 0.00 in0.0 mm 0.00 in0.0 mm
09:10 PM 33.9°F1.1°C 32.1°F0.1°C 93% 2.3 mph NW3.7 kmh NW 2.3 mph3.7 kmh 29.81 in1009.5 mb - 0.01 in0.3 mm 0.01 in0.3 mm
09:20 PM 33.8°F1.0°C 32.2°F0.1°C 94% 5.8 mph N9.3 kmh N 8.1 mph13.0 kmh 29.80 in1009.1 mb - 0.00 in0.0 mm 0.01 in0.3 mm
09:30 PM 33.6°F0.9°C 32.1°F0.1°C 94% 4.6 mph NW7.4 kmh NW 4.6 mph7.4 kmh 29.80 in1009.1 mb - 0.00 in0.0 mm 0.01 in0.3 mm
09:40 PM 33.4°F0.8°C 31.9°F-0.1°C 94% 2.3 mph NNW3.7 kmh NNW 6.9 mph11.1 kmh 29.80 in1009.1 mb - 0.00 in0.0 mm 0.01 in0.3 mm
09:50 PM 33.3°F0.7°C 31.8°F-0.1°C 94% 2.3 mph NW3.7 kmh NW 3.5 mph5.6 kmh 29.80 in1009.1 mb - 0.00 in0.0 mm 0.01 in0.3 mm
10:00 PM 33.2°F0.7°C 31.6°F-0.2°C 94% 1.2 mph NW1.9 kmh NW 3.5 mph5.6 kmh 29.80 in1009.1 mb - 0.00 in0.0 mm 0.01 in0.3 mm
10:10 PM 33.1°F0.6°C 31.6°F-0.2°C 94% 2.3 mph ESE3.7 kmh ESE 3.5 mph5.6 kmh 29.80 in1009.1 mb - 0.00 in0.0 mm 0.01 in0.3 mm
10:20 PM 33.0°F0.6°C 31.5°F-0.3°C 94% 2.3 mph NNE3.7 kmh NNE 3.5 mph5.6 kmh 29.79 in1008.8 mb - 0.00 in0.0 mm 0.01 in0.3 mm
10:30 PM 32.9°F0.5°C 31.4°F-0.3°C 94% 2.3 mph NNE3.7 kmh NNE 3.5 mph5.6 kmh 29.79 in1008.8 mb - 0.00 in0.0 mm 0.01 in0.3 mm
10:40 PM 32.8°F0.4°C 31.3°F-0.4°C 94% 2.3 mph N3.7 kmh N 3.5 mph5.6 kmh 29.79 in1008.8 mb - 0.00 in0.0 mm 0.01 in0.3 mm
10:50 PM 32.8°F0.4°C 31.5°F-0.3°C 95% 2.3 mph N3.7 kmh N 3.5 mph5.6 kmh 29.79 in1008.8 mb - 0.00 in0.0 mm 0.01 in0.3 mm
11:00 PM 32.8°F0.4°C 31.5°F-0.3°C 95% 2.3 mph N3.7 kmh N 3.5 mph5.6 kmh 29.79 in1008.8 mb - 0.00 in0.0 mm 0.01 in0.3 mm
11:10 PM 32.8°F0.4°C 31.5°F-0.3°C 95% 2.3 mph N3.7 kmh N 3.5 mph5.6 kmh 29.78 in1008.5 mb - 0.00 in0.0 mm 0.01 in0.3 mm
11:20 PM 32.7°F0.4°C 31.4°F-0.3°C 95% 1.2 mph N1.9 kmh N 3.5 mph5.6 kmh 29.78 in1008.5 mb - 0.00 in0.0 mm 0.01 in0.3 mm
11:30 PM 32.7°F0.4°C 31.4°F-0.3°C 95% 2.3 mph N3.7 kmh N 3.5 mph5.6 kmh 29.77 in1008.1 mb - 0.00 in0.0 mm 0.01 in0.3 mm
11:40 PM 32.6°F0.3°C 31.4°F-0.3°C 95% 1.2 mph ENE1.9 kmh ENE 3.5 mph5.6 kmh 29.77 in1008.1 mb - 0.00 in0.0 mm 0.01 in0.3 mm
11:50 PM 32.6°F0.3°C 31.3°F-0.4°C 95% 1.2 mph NNW1.9 kmh NNW 2.3 mph3.7 kmh 29.77 in1008.1 mb - 0.00 in0.0 mm 0.01 in0.3 mm